createdAt,value
2018-10-12T00:00:39.460Z,23.87
2018-10-12T00:03:06.779Z,20.63
2018-10-12T00:05:34.098Z,22.07
2018-10-12T00:08:01.424Z,20.57
2018-10-12T00:10:28.766Z,21.70
2018-10-12T00:12:56.881Z,23.27
2018-10-12T00:15:24.213Z,21.87
2018-10-12T00:17:51.540Z,20.63
2018-10-12T00:20:18.873Z,20.03
2018-10-12T00:22:46.230Z,21.70
2018-10-12T00:25:13.573Z,22.43
2018-10-12T00:27:40.893Z,20.13
2018-10-12T00:30:08.242Z,22.40
2018-10-12T00:32:35.565Z,22.33
2018-10-12T00:35:02.923Z,21.47
2018-10-12T00:37:30.288Z,20.77
2018-10-12T00:39:57.624Z,21.80
2018-10-12T00:42:24.965Z,21.80
2018-10-12T00:44:52.312Z,22.03
2018-10-12T00:47:19.674Z,22.10
2018-10-12T00:49:47.041Z,22.13
2018-10-12T00:52:14.333Z,22.27
2018-10-12T00:54:41.673Z,21.97
2018-10-12T00:57:09.011Z,20.30
2018-10-12T00:59:36.393Z,22.10
2018-10-12T01:02:03.726Z,22.10
2018-10-12T01:04:31.122Z,21.00
2018-10-12T01:06:58.469Z,21.67
2018-10-12T01:09:25.796Z,21.00
2018-10-12T01:12:04.690Z,22.10
2018-10-12T01:14:31.998Z,20.67
2018-10-12T01:16:59.345Z,21.23
2018-10-12T01:19:26.691Z,20.90
2018-10-12T01:21:54.039Z,23.00
2018-10-12T01:24:21.402Z,20.50
2018-10-12T01:26:48.750Z,21.73
2018-10-12T01:29:16.086Z,21.20
2018-10-12T01:31:43.753Z,24.00
2018-10-12T01:34:11.086Z,22.70
2018-10-12T01:36:38.429Z,22.20
2018-10-12T01:39:06.230Z,20.63
2018-10-12T01:41:33.569Z,21.80
2018-10-12T01:44:00.925Z,20.63
2018-10-12T01:46:28.241Z,20.33
2018-10-12T01:48:55.592Z,21.03
2018-10-12T01:51:22.929Z,21.40
2018-10-12T01:53:50.282Z,22.60
2018-10-12T01:56:17.607Z,21.17
2018-10-12T01:58:44.943Z,21.70
2018-10-12T02:01:12.264Z,20.87
2018-10-12T02:03:39.649Z,20.80
2018-10-12T02:06:06.964Z,21.63
2018-10-12T02:08:34.297Z,20.97
2018-10-12T02:11:01.658Z,25.00
2018-10-12T02:13:28.993Z,22.03
2018-10-12T02:15:56.321Z,21.97
2018-10-12T02:18:23.678Z,22.40
2018-10-12T02:20:51.036Z,20.80
2018-10-12T02:23:18.365Z,21.90
2018-10-12T02:25:45.709Z,20.33
2018-10-12T02:28:13.599Z,21.40
2018-10-12T02:30:40.941Z,21.17
2018-10-12T02:33:08.265Z,23.40
2018-10-12T02:35:35.600Z,21.37
2018-10-12T02:38:02.942Z,21.03
2018-10-12T02:40:30.310Z,23.30
2018-10-12T02:42:57.638Z,21.43
2018-10-12T02:45:24.992Z,21.60
2018-10-12T02:47:52.339Z,22.87
2018-10-12T02:50:19.658Z,23.57
2018-10-12T02:52:47.022Z,22.47
2018-10-12T02:55:14.326Z,23.83
2018-10-12T02:57:41.664Z,22.73
2018-10-12T03:00:09.010Z,20.60
2018-10-12T03:02:36.382Z,21.90
2018-10-12T03:05:04.312Z,22.40
2018-10-12T03:07:31.716Z,23.40
2018-10-12T03:09:59.096Z,22.60
2018-10-12T03:12:26.416Z,20.97
2018-10-12T03:14:53.742Z,22.53
2018-10-12T03:17:21.077Z,23.00
2018-10-12T03:19:48.409Z,22.60
2018-10-12T03:22:15.740Z,23.67
2018-10-12T03:24:43.074Z,22.50
2018-10-12T03:27:10.425Z,23.50
2018-10-12T03:29:37.769Z,22.63
2018-10-12T03:32:05.125Z,22.90
2018-10-12T03:34:32.542Z,24.30
2018-10-12T03:36:59.878Z,21.93
2018-10-12T03:39:27.230Z,25.33
2018-10-12T03:41:54.568Z,23.23
2018-10-12T03:44:21.906Z,24.97
2018-10-12T03:46:49.278Z,25.83
2018-10-12T03:49:16.596Z,24.97
2018-10-12T03:51:43.967Z,25.40
2018-10-12T03:54:11.257Z,26.80
2018-10-12T03:56:38.582Z,26.20
2018-10-12T03:59:05.997Z,25.27
2018-10-12T04:01:33.338Z,23.80
2018-10-12T04:04:00.701Z,24.77
2018-10-12T04:06:28.049Z,24.40
2018-10-12T04:08:55.369Z,25.70
2018-10-12T04:11:22.734Z,24.50
2018-10-12T04:13:50.083Z,24.57
2018-10-12T04:16:17.434Z,24.23
2018-10-12T04:18:44.809Z,25.07
2018-10-12T04:21:12.168Z,24.20
2018-10-12T04:23:39.498Z,24.30
2018-10-12T04:26:07.157Z,24.60
2018-10-12T04:28:34.497Z,27.13
2018-10-12T04:31:01.956Z,26.23
2018-10-12T04:33:29.307Z,28.57
2018-10-12T04:35:56.658Z,29.03
2018-10-12T04:38:24.001Z,30.07
2018-10-12T04:40:59.281Z,28.57
2018-10-12T04:43:26.657Z,28.07
2018-10-12T04:45:54.172Z,27.63
2018-10-12T04:48:21.528Z,25.13
2018-10-12T04:50:48.825Z,25.70
2018-10-12T04:53:16.158Z,28.30
2018-10-12T04:55:43.520Z,27.47
2018-10-12T04:58:10.988Z,25.27
2018-10-12T05:00:38.481Z,26.10
2018-10-12T05:03:05.867Z,23.13
2018-10-12T05:05:33.228Z,24.00
2018-10-12T05:08:00.606Z,24.40
2018-10-12T05:10:27.945Z,23.17
2018-10-12T05:12:55.280Z,25.03
2018-10-12T05:15:22.625Z,24.83
2018-10-12T05:17:49.957Z,24.03
2018-10-12T05:20:17.300Z,25.70
2018-10-12T05:22:44.724Z,24.60
2018-10-12T05:25:12.094Z,23.50
2018-10-12T05:27:39.417Z,23.97
2018-10-12T05:30:06.920Z,23.43
2018-10-12T05:32:34.233Z,25.13
2018-10-12T05:35:01.596Z,23.60
2018-10-12T05:37:28.967Z,23.20
2018-10-12T05:39:56.316Z,25.07
2018-10-12T05:42:23.665Z,23.70
2018-10-12T05:44:51.063Z,25.23
2018-10-12T05:47:18.480Z,23.77
2018-10-12T05:49:58.605Z,24.53
2018-10-12T05:52:25.933Z,23.97
2018-10-12T05:54:53.302Z,24.13
2018-10-12T05:57:20.669Z,25.30
2018-10-12T05:59:47.998Z,28.83
2018-10-12T06:02:15.337Z,26.70
2018-10-12T06:04:42.666Z,24.23
2018-10-12T06:07:10.025Z,25.70
2018-10-12T06:09:37.437Z,26.27
2018-10-12T06:12:04.689Z,25.50
2018-10-12T06:14:32.070Z,24.33
2018-10-12T06:16:59.480Z,24.43
2018-10-12T06:19:26.798Z,26.30
2018-10-12T06:21:54.162Z,24.50
2018-10-12T06:24:21.489Z,24.07
2018-10-12T06:26:48.975Z,27.50
2018-10-12T06:29:16.198Z,27.27
2018-10-12T06:31:43.553Z,29.50
2018-10-12T06:34:10.903Z,28.40
2018-10-12T06:36:38.399Z,29.77
2018-10-12T06:39:05.754Z,28.83
2018-10-12T06:41:33.257Z,28.50
2018-10-12T06:44:00.505Z,27.30
2018-10-12T06:46:27.905Z,28.53
2018-10-12T06:48:55.280Z,30.17
2018-10-12T06:51:22.653Z,28.53
2018-10-12T06:53:50.075Z,28.50
2018-10-12T06:56:17.446Z,30.93
2018-10-12T06:58:44.800Z,30.63
2018-10-12T07:01:12.158Z,29.97
2018-10-12T07:03:40.102Z,31.50
2018-10-12T07:06:06.943Z,32.27
2018-10-12T07:08:34.341Z,28.03
2018-10-12T07:11:01.706Z,30.57
2018-10-12T07:13:29.077Z,32.10
2018-10-12T07:15:56.431Z,35.20
2018-10-12T07:18:23.893Z,36.10
2018-10-12T07:20:51.269Z,32.87
2018-10-12T07:23:18.598Z,33.63
2018-10-12T07:25:45.933Z,30.80
2018-10-12T07:28:13.277Z,32.17
2018-10-12T07:30:40.884Z,34.33
2018-10-12T07:33:08.301Z,30.40
2018-10-12T07:35:35.648Z,33.77
2018-10-12T07:38:03.019Z,33.83
2018-10-12T07:40:30.351Z,31.87
2018-10-12T07:42:57.698Z,33.83
2018-10-12T07:45:25.094Z,36.10
2018-10-12T07:47:52.429Z,34.87
2018-10-12T07:50:19.772Z,32.10
2018-10-12T07:52:47.121Z,33.40
2018-10-12T07:55:14.478Z,33.80
2018-10-12T07:57:41.814Z,37.30
2018-10-12T08:00:09.187Z,34.87
2018-10-12T08:02:36.506Z,36.50
2018-10-12T08:05:04.060Z,35.47
2018-10-12T08:07:31.480Z,35.40
2018-10-12T08:09:58.829Z,35.40
2018-10-12T08:12:26.246Z,36.00
2018-10-12T08:14:53.572Z,33.97
2018-10-12T08:17:20.885Z,34.67
2018-10-12T08:19:48.313Z,37.93
2018-10-12T08:22:15.663Z,35.07
2018-10-12T08:24:42.997Z,33.90
2018-10-12T08:27:10.433Z,33.17
2018-10-12T08:29:37.786Z,34.70
2018-10-12T08:32:05.211Z,33.93
2018-10-12T08:34:32.553Z,30.50
2018-10-12T08:36:59.919Z,32.83
2018-10-12T08:39:27.314Z,31.53
2018-10-12T08:41:54.702Z,29.17
2018-10-12T08:44:22.062Z,31.40
2018-10-12T08:46:49.561Z,31.80
2018-10-12T08:49:16.936Z,32.60
2018-10-12T08:51:44.272Z,30.10
2018-10-12T08:54:11.705Z,30.13
2018-10-12T08:56:39.037Z,30.60
2018-10-12T08:59:06.450Z,26.80
2018-10-12T09:01:33.885Z,27.40
2018-10-12T09:04:01.249Z,24.77
2018-10-12T09:06:28.647Z,25.83
2018-10-12T09:08:55.977Z,25.17
2018-10-12T09:11:23.313Z,23.50
2018-10-12T09:13:50.742Z,26.20
2018-10-12T09:16:18.138Z,23.90
2018-10-12T09:18:45.416Z,26.17
2018-10-12T09:21:12.782Z,27.00
2018-10-12T09:23:40.122Z,26.80
2018-10-12T09:26:07.484Z,27.57
2018-10-12T09:28:34.818Z,26.37
2018-10-12T09:31:02.191Z,22.93
2018-10-12T09:33:29.542Z,23.17
2018-10-12T09:35:56.872Z,22.10
2018-10-12T09:38:24.206Z,20.97
2018-10-12T09:40:51.654Z,19.63
2018-10-12T09:43:19.043Z,20.37
2018-10-12T09:45:46.362Z,17.87
2018-10-12T09:48:13.680Z,15.97
2018-10-12T09:50:41.056Z,18.90
2018-10-12T09:53:08.427Z,26.53
2018-10-12T09:55:35.765Z,26.60
2018-10-12T09:58:03.180Z,23.93
2018-10-12T10:00:30.522Z,23.10
2018-10-12T10:02:57.853Z,20.97
2018-10-12T10:05:25.262Z,21.20
2018-10-12T10:07:52.775Z,21.87
2018-10-12T10:10:20.018Z,22.67
2018-10-12T10:12:47.518Z,20.50
2018-10-12T10:15:14.922Z,20.10
2018-10-12T10:17:42.319Z,22.00
2018-10-12T10:20:09.803Z,20.73
2018-10-12T10:22:37.363Z,21.63
2018-10-12T10:25:04.838Z,20.63
2018-10-12T10:27:32.245Z,18.10
2018-10-12T10:29:59.619Z,17.70
2018-10-12T10:32:27.003Z,18.87
2018-10-12T10:34:54.398Z,18.00
2018-10-12T10:37:21.787Z,18.07
2018-10-12T10:39:49.141Z,16.10
2018-10-12T10:42:16.522Z,17.20
2018-10-12T10:44:43.959Z,15.73
2018-10-12T10:47:11.297Z,13.90
2018-10-12T10:49:38.653Z,17.30
2018-10-12T10:52:06.008Z,13.50
2018-10-12T10:54:33.346Z,14.33
2018-10-12T10:57:00.764Z,13.67
2018-10-12T10:59:28.488Z,13.23
2018-10-12T11:01:55.845Z,13.37
2018-10-12T11:04:23.302Z,12.10
2018-10-12T11:06:50.733Z,13.33
2018-10-12T11:09:18.230Z,12.63
2018-10-12T11:11:45.641Z,17.27
2018-10-12T11:14:13.039Z,12.00
2018-10-12T11:16:40.497Z,10.50
2018-10-12T11:19:07.898Z,10.07
2018-10-12T11:21:35.319Z,10.10
2018-10-12T11:24:02.752Z,9.30
2018-10-12T11:26:30.267Z,8.57
2018-10-12T11:28:57.616Z,9.77
2018-10-12T11:31:24.986Z,9.07
2018-10-12T11:33:52.323Z,9.63
2018-10-12T11:36:19.683Z,9.40
2018-10-12T11:38:47.038Z,9.40
2018-10-12T11:41:14.423Z,9.87
2018-10-12T11:43:41.869Z,9.77
2018-10-12T11:46:09.244Z,9.47
2018-10-12T11:48:36.653Z,8.60
2018-10-12T11:51:04.114Z,10.80
2018-10-12T11:53:31.433Z,9.10
2018-10-12T11:55:58.848Z,10.13
2018-10-12T11:58:26.239Z,10.23
2018-10-12T12:00:53.645Z,10.27
2018-10-12T12:03:20.982Z,9.37
2018-10-12T12:05:48.422Z,10.40
2018-10-12T12:08:15.755Z,10.30
2018-10-12T12:10:43.177Z,9.87
2018-10-12T12:13:10.541Z,10.10
2018-10-12T12:15:37.935Z,8.17
2018-10-12T12:18:05.923Z,9.07
2018-10-12T12:20:33.269Z,8.47
2018-10-12T12:23:00.702Z,9.50
2018-10-12T12:25:28.063Z,8.77
2018-10-12T12:27:55.429Z,8.40
2018-10-12T12:30:22.858Z,8.00
2018-10-12T12:32:50.217Z,7.63
2018-10-12T12:35:17.762Z,7.17
2018-10-12T12:37:45.133Z,7.63
2018-10-12T12:40:12.500Z,7.63
2018-10-12T12:42:39.840Z,6.70
2018-10-12T12:45:07.202Z,7.33
2018-10-12T12:47:34.687Z,7.57
2018-10-12T12:50:01.990Z,7.63
2018-10-12T12:52:29.358Z,6.80
2018-10-12T12:54:56.837Z,6.03
2018-10-12T12:57:24.174Z,5.80
2018-10-12T12:59:51.498Z,6.70
2018-10-12T13:02:18.870Z,6.80
2018-10-12T13:04:46.301Z,5.90
2018-10-12T13:07:13.651Z,5.87
2018-10-12T13:09:40.990Z,5.80
2018-10-12T13:12:08.384Z,5.30
2018-10-12T13:14:35.769Z,4.40
2018-10-12T13:17:03.177Z,7.37
2018-10-12T13:19:30.524Z,5.07
2018-10-12T13:21:57.841Z,4.87
2018-10-12T13:24:25.188Z,4.83
2018-10-12T13:26:52.583Z,4.00
2018-10-12T13:29:20.017Z,4.37
2018-10-12T13:31:47.385Z,4.10
2018-10-12T13:34:14.708Z,4.40
2018-10-12T13:36:42.118Z,4.63
2018-10-12T13:39:09.733Z,4.73
2018-10-12T13:41:37.050Z,4.20
2018-10-12T13:44:04.405Z,3.40
2018-10-12T13:46:31.780Z,4.50
2018-10-12T13:48:59.107Z,4.90
2018-10-12T13:51:26.456Z,4.30
2018-10-12T13:53:53.827Z,3.80
2018-10-12T13:56:21.205Z,3.80
2018-10-12T13:58:48.562Z,4.30
2018-10-12T14:01:15.995Z,4.37
2018-10-12T14:03:43.387Z,3.47
2018-10-12T14:06:10.825Z,3.97
2018-10-12T14:08:38.176Z,3.90
2018-10-12T14:11:05.533Z,4.40
2018-10-12T14:13:32.888Z,4.17
2018-10-12T14:16:00.265Z,4.07
2018-10-12T14:18:27.740Z,3.70
2018-10-12T14:20:55.046Z,4.50
2018-10-12T14:23:22.405Z,3.93
2018-10-12T14:25:49.761Z,4.37
2018-10-12T14:28:17.169Z,3.50
2018-10-12T14:30:44.577Z,4.37
2018-10-12T14:33:11.961Z,4.53
2018-10-12T14:35:39.362Z,3.90
2018-10-12T14:38:06.699Z,3.70
2018-10-12T14:40:34.062Z,4.03
2018-10-12T14:43:02.508Z,3.40
2018-10-12T14:45:30.933Z,4.17
2018-10-12T14:47:58.333Z,3.73
2018-10-12T14:50:25.751Z,3.90
2018-10-12T14:52:53.227Z,4.00
2018-10-12T14:55:21.533Z,4.00
2018-10-12T14:57:48.864Z,3.70
2018-10-12T15:00:16.224Z,3.70
2018-10-12T15:02:43.585Z,3.60
2018-10-12T15:05:10.982Z,3.27
2018-10-12T15:07:38.860Z,3.73
2018-10-12T15:10:06.261Z,3.27
2018-10-12T15:12:33.601Z,3.80
2018-10-12T15:15:12.120Z,3.97
2018-10-12T15:17:39.539Z,4.20
2018-10-12T15:20:06.954Z,3.80
2018-10-12T15:22:34.318Z,3.90
2018-10-12T15:25:01.694Z,3.93
2018-10-12T15:27:29.017Z,3.97
2018-10-12T15:29:56.333Z,3.83
2018-10-12T15:32:23.701Z,4.53
2018-10-12T15:34:51.101Z,3.80
2018-10-12T15:37:18.514Z,3.90
2018-10-12T15:39:45.949Z,3.97
2018-10-12T15:42:13.401Z,3.87
2018-10-12T15:44:40.836Z,3.77
2018-10-12T15:47:08.206Z,3.63
2018-10-12T15:49:35.654Z,4.90
2018-10-12T15:52:02.985Z,4.73
2018-10-12T15:54:30.377Z,3.93
2018-10-12T15:56:57.822Z,4.03
2018-10-12T15:59:25.080Z,3.63
2018-10-12T16:01:52.419Z,3.87
2018-10-12T16:04:19.963Z,3.77
2018-10-12T16:06:47.369Z,4.23
2018-10-12T16:09:14.717Z,3.60
2018-10-12T16:11:42.173Z,3.83
2018-10-12T16:14:09.507Z,4.30
2018-10-12T16:16:36.845Z,3.50
2018-10-12T16:19:04.179Z,4.10
2018-10-12T16:21:31.553Z,4.37
2018-10-12T16:24:07.801Z,3.83
2018-10-12T16:26:35.193Z,3.70
2018-10-12T16:29:02.602Z,3.27
2018-10-12T16:31:29.925Z,3.90
2018-10-12T16:33:57.264Z,3.80
2018-10-12T16:36:24.782Z,3.87
2018-10-12T16:38:51.965Z,3.73
2018-10-12T16:41:19.301Z,3.37
2018-10-12T16:43:46.654Z,4.00
2018-10-12T16:46:14.012Z,3.53
2018-10-12T16:48:41.395Z,4.10
2018-10-12T16:51:08.702Z,4.57
2018-10-12T16:53:36.099Z,4.13
2018-10-12T16:56:03.421Z,2.93
2018-10-12T16:58:30.785Z,3.27
2018-10-12T17:00:58.153Z,3.60
2018-10-12T17:03:25.486Z,3.87
2018-10-12T17:05:52.814Z,3.90
2018-10-12T17:08:20.245Z,3.67
2018-10-12T17:10:47.590Z,3.80
2018-10-12T17:13:15.108Z,3.57
2018-10-12T17:15:42.577Z,3.67
2018-10-12T17:18:10.000Z,3.87
2018-10-12T17:20:38.405Z,3.90
2018-10-12T17:23:05.809Z,4.30
2018-10-12T17:25:33.182Z,4.37
2018-10-12T17:28:00.542Z,4.43
2018-10-12T17:30:27.984Z,4.50
2018-10-12T17:32:55.238Z,5.30
2018-10-12T17:35:22.578Z,5.30
2018-10-12T17:37:49.909Z,5.60
2018-10-12T17:40:17.304Z,5.50
2018-10-12T17:42:44.661Z,5.10
2018-10-12T17:45:12.025Z,5.60
2018-10-12T17:47:39.355Z,5.57
2018-10-12T17:50:06.801Z,6.10
2018-10-12T17:52:34.182Z,6.20
2018-10-12T17:55:01.519Z,6.80
2018-10-12T17:57:28.858Z,6.57
2018-10-12T17:59:56.373Z,6.20
2018-10-12T18:02:23.653Z,6.90
2018-10-12T18:04:51.029Z,6.40
2018-10-12T18:07:18.358Z,6.30
2018-10-12T18:09:45.741Z,6.37
2018-10-12T18:12:13.113Z,6.60
2018-10-12T18:14:40.538Z,6.30
2018-10-12T18:17:07.928Z,5.43
2018-10-12T18:19:35.294Z,6.63
2018-10-12T18:22:02.734Z,6.93
2018-10-12T18:24:30.144Z,7.60
2018-10-12T18:26:57.472Z,6.27
2018-10-12T18:29:24.797Z,6.83
2018-10-12T18:31:52.173Z,5.93
2018-10-12T18:34:19.568Z,6.90
2018-10-12T18:36:47.012Z,6.83
2018-10-12T18:39:14.390Z,6.60
2018-10-12T18:41:41.800Z,5.70
2018-10-12T18:44:09.220Z,6.50
2018-10-12T18:46:36.565Z,6.47
2018-10-12T18:49:04.026Z,7.30
2018-10-12T18:51:31.359Z,6.80
2018-10-12T18:53:58.712Z,7.07
2018-10-12T18:56:26.085Z,6.40
2018-10-12T18:58:53.421Z,6.50
2018-10-12T19:01:20.741Z,7.00
2018-10-12T19:03:48.144Z,8.10
2018-10-12T19:06:15.468Z,6.80
2018-10-12T19:08:42.854Z,7.40
2018-10-12T19:11:10.209Z,6.00
2018-10-12T19:13:37.609Z,6.37
2018-10-12T19:16:04.857Z,7.10
2018-10-12T19:18:32.287Z,7.37
2018-10-12T19:20:59.671Z,6.40
2018-10-12T19:23:27.074Z,6.90
2018-10-12T19:25:54.345Z,6.97
2018-10-12T19:28:21.692Z,7.40
2018-10-12T19:30:49.052Z,7.87
2018-10-12T19:33:16.388Z,6.10
2018-10-12T19:35:43.739Z,6.63
2018-10-12T19:38:11.099Z,6.90
2018-10-12T19:40:38.438Z,6.97
2018-10-12T19:43:05.845Z,7.27
2018-10-12T19:45:33.236Z,6.67
2018-10-12T19:48:00.596Z,7.53
2018-10-12T19:50:28.024Z,7.10
2018-10-12T19:52:55.373Z,7.10
2018-10-12T19:55:22.717Z,6.90
2018-10-12T19:57:50.038Z,6.30
2018-10-12T20:00:17.461Z,6.83
2018-10-12T20:02:44.798Z,6.57
2018-10-12T20:05:12.133Z,7.30
2018-10-12T20:07:39.480Z,6.77
2018-10-12T20:10:06.862Z,6.00
2018-10-12T20:12:34.237Z,6.40
2018-10-12T20:15:01.591Z,6.20
2018-10-12T20:17:29.000Z,5.77
2018-10-12T20:19:56.292Z,5.67
2018-10-12T20:22:23.620Z,6.93
2018-10-12T20:24:51.055Z,6.50
2018-10-12T20:27:18.378Z,5.30
2018-10-12T20:29:45.696Z,5.87
2018-10-12T20:32:13.039Z,6.10
2018-10-12T20:34:40.398Z,6.40
2018-10-12T20:37:07.769Z,6.20
2018-10-12T20:39:35.101Z,6.03
2018-10-12T20:42:02.462Z,6.10
2018-10-12T20:44:29.841Z,6.90
2018-10-12T20:46:57.174Z,6.60
2018-10-12T20:49:24.490Z,6.13
2018-10-12T20:51:51.853Z,6.93
2018-10-12T20:54:19.269Z,6.73
2018-10-12T20:56:46.609Z,6.00
2018-10-12T20:59:13.989Z,6.47
2018-10-12T21:01:41.385Z,6.27
2018-10-12T21:04:08.774Z,5.63
2018-10-12T21:06:36.048Z,6.90
2018-10-12T21:09:05.952Z,6.40
2018-10-12T21:11:33.279Z,6.53
2018-10-12T21:14:00.635Z,6.80
2018-10-12T21:16:27.992Z,6.03
2018-10-12T21:18:55.426Z,5.40
2018-10-12T21:21:22.748Z,6.80
2018-10-12T21:23:50.101Z,6.40
2018-10-12T21:26:17.438Z,6.37
2018-10-12T21:28:44.805Z,6.70
2018-10-12T21:31:12.161Z,6.20
2018-10-12T21:33:39.528Z,7.10
2018-10-12T21:36:06.935Z,6.67
2018-10-12T21:38:34.273Z,6.30
2018-10-12T21:41:01.617Z,6.60
2018-10-12T21:43:28.981Z,5.73
2018-10-12T21:45:56.436Z,6.60
2018-10-12T21:48:23.781Z,6.00
2018-10-12T21:50:51.134Z,6.30
2018-10-12T21:53:18.493Z,7.00
2018-10-12T21:55:45.835Z,5.60
2018-10-12T21:58:13.173Z,6.93
2018-10-12T22:00:40.503Z,6.10
2018-10-12T22:03:07.842Z,6.37
2018-10-12T22:05:35.161Z,8.40
2018-10-12T22:08:02.512Z,9.83
2018-10-12T22:10:29.893Z,6.53
2018-10-12T22:12:57.217Z,5.63
2018-10-12T22:15:24.634Z,6.93
2018-10-12T22:17:51.990Z,8.27
2018-10-12T22:20:26.133Z,10.97
2018-10-12T22:22:53.543Z,6.30
2018-10-12T22:25:20.907Z,6.83
2018-10-12T22:27:48.266Z,6.97
2018-10-12T22:30:15.677Z,6.20
2018-10-12T22:32:43.025Z,6.20
2018-10-12T22:35:10.451Z,6.17
2018-10-12T22:37:37.797Z,6.73
2018-10-12T22:40:05.134Z,6.50
2018-10-12T22:42:32.535Z,6.43
2018-10-12T22:44:59.921Z,6.17
2018-10-12T22:47:27.273Z,6.53
2018-10-12T22:49:54.633Z,6.40
2018-10-12T22:52:21.962Z,6.60
2018-10-12T22:54:49.291Z,5.53
2018-10-12T22:57:16.628Z,6.50
2018-10-12T22:59:44.045Z,6.37
2018-10-12T23:02:11.387Z,6.30
2018-10-12T23:04:39.553Z,6.87
2018-10-12T23:07:06.901Z,10.30
2018-10-12T23:09:34.258Z,10.30
2018-10-12T23:12:01.662Z,10.17
2018-10-12T23:14:28.989Z,8.20
2018-10-12T23:16:56.388Z,8.77
2018-10-12T23:19:23.741Z,6.90
2018-10-12T23:21:51.078Z,7.10
2018-10-12T23:24:18.428Z,7.37
2018-10-12T23:26:45.754Z,9.03
2018-10-12T23:29:13.170Z,10.20
2018-10-12T23:31:40.472Z,7.80
2018-10-12T23:34:07.834Z,6.80
2018-10-12T23:36:35.161Z,7.10
2018-10-12T23:39:02.526Z,7.50
2018-10-12T23:41:29.872Z,8.87
2018-10-12T23:43:57.209Z,7.07
2018-10-12T23:46:24.553Z,7.23
2018-10-12T23:48:51.914Z,6.83
2018-10-12T23:51:19.284Z,6.13
2018-10-12T23:53:46.665Z,6.97
2018-10-12T23:56:13.995Z,6.17
2018-10-12T23:58:41.322Z,7.20
